Time;durP1;ratioP1;P1;durP2;ratioP2;P2;SDS_P1;SDS_P2;PMS_P1;PMS_P2;Temp;Humidity;BMP_temperature;BMP_pressure;BME280_temperature;BME280_humidity;BME280_pressure;Samples;Min_cycle;Max_cycle;Signal;HPM_P1;HPM_P2
2021/07/01 00:04:21;;;;;;;4.38;3.35;;;;;;;;;;10326701;28;20109;-82
2021/07/01 00:09:24;;;;;;;4.80;3.92;;;;;;;;;;10327023;28;20046;-82
2021/07/01 00:14:25;;;;;;;5.97;3.70;;;;;;;;;;10327792;28;20121;-82
2021/07/01 00:19:27;;;;;;;5.20;3.15;;;;;;;;;;10327049;28;20147;-82
2021/07/01 00:24:29;;;;;;;4.72;2.55;;;;;;;;;;10310589;28;20133;-81
2021/07/01 00:29:30;;;;;;;4.43;2.40;;;;;;;;;;10326809;28;20085;-81
2021/07/01 00:34:32;;;;;;;3.70;1.98;;;;;;;;;;10324802;28;20129;-81
2021/07/01 00:39:34;;;;;;;2.03;1.70;;;;;;;;;;10297484;28;20146;-82
2021/07/01 00:44:35;;;;;;;3.70;1.77;;;;;;;;;;10318527;28;20065;-82
2021/07/01 00:49:37;;;;;;;3.35;1.70;;;;;;;;;;10357525;28;20081;-82
2021/07/01 00:54:39;;;;;;;4.57;2.20;;;;;;;;;;10316300;28;20441;-82
2021/07/01 00:59:41;;;;;;;2.70;1.90;;;;;;;;;;10320067;28;20073;-81
2021/07/01 01:04:42;;;;;;;3.85;2.40;;;;;;;;;;10324684;28;20512;-82
2021/07/01 01:09:44;;;;;;;3.67;2.78;;;;;;;;;;10308428;28;20129;-82
2021/07/01 01:14:46;;;;;;;4.90;3.20;;;;;;;;;;10325637;28;20511;-82
2021/07/01 01:19:47;;;;;;;5.38;3.42;;;;;;;;;;10324463;28;20104;-82
2021/07/01 01:24:49;;;;;;;5.65;3.70;;;;;;;;;;10324792;28;20050;-81
2021/07/01 01:29:50;;;;;;;6.57;4.18;;;;;;;;;;10326910;28;20389;-82
2021/07/01 01:34:52;;;;;;;6.95;5.25;;;;;;;;;;10313113;28;20082;-82
2021/07/01 01:39:53;;;;;;;7.10;5.78;;;;;;;;;;10334619;28;20089;-82
2021/07/01 01:44:55;;;;;;;10.48;6.97;;;;;;;;;;10323687;28;20511;-82
2021/07/01 01:49:56;;;;;;;14.25;9.57;;;;;;;;;;10306319;28;20058;-82
2021/07/01 01:54:58;;;;;;;13.52;11.00;;;;;;;;;;10323361;28;20046;-81
2021/07/01 01:59:59;;;;;;;14.27;10.85;;;;;;;;;;10325746;28;20070;-82
2021/07/01 02:05:01;;;;;;;12.63;10.98;;;;;;;;;;10303212;28;20050;-82
2021/07/01 02:10:03;;;;;;;13.23;11.20;;;;;;;;;;10339825;28;20080;-81
2021/07/01 02:15:06;;;;;;;14.30;10.45;;;;;;;;;;10312794;28;20085;-81
2021/07/01 02:20:09;;;;;;;13.10;10.45;;;;;;;;;;10326689;28;20086;-81
2021/07/01 02:25:11;;;;;;;15.85;10.63;;;;;;;;;;10328124;28;20077;-81
2021/07/01 02:30:13;;;;;;;13.88;11.20;;;;;;;;;;10329750;28;20074;-81
2021/07/01 02:35:15;;;;;;;12.00;10.27;;;;;;;;;;10328974;28;20086;-81
2021/07/01 02:40:17;;;;;;;11.13;9.88;;;;;;;;;;10312018;28;20547;-81
2021/07/01 02:45:19;;;;;;;10.05;8.25;;;;;;;;;;10327462;28;20046;-81
2021/07/01 02:50:20;;;;;;;8.77;7.47;;;;;;;;;;10328571;28;20122;-81
2021/07/01 02:55:22;;;;;;;8.75;7.00;;;;;;;;;;10329746;28;20085;-81
2021/07/01 03:00:24;;;;;;;7.70;6.18;;;;;;;;;;10340857;28;20104;-81
2021/07/01 03:05:25;;;;;;;7.32;5.85;;;;;;;;;;10331047;28;20054;-82
2021/07/01 03:10:27;;;;;;;8.70;5.75;;;;;;;;;;10323493;28;20530;-81
2021/07/01 03:15:28;;;;;;;6.75;5.35;;;;;;;;;;10326685;28;20129;-81
2021/07/01 03:20:30;;;;;;;7.82;5.07;;;;;;;;;;10332419;28;20407;-81
2021/07/01 03:25:32;;;;;;;7.32;5.07;;;;;;;;;;10317250;28;20092;-81
2021/07/01 03:30:33;;;;;;;9.05;4.88;;;;;;;;;;10342758;28;20200;-82
2021/07/01 03:35:35;;;;;;;8.98;4.43;;;;;;;;;;10327813;28;20141;-81
2021/07/01 03:40:36;;;;;;;6.18;4.00;;;;;;;;;;10314983;28;20085;-81
2021/07/01 03:45:38;;;;;;;5.78;3.78;;;;;;;;;;10328110;28;20074;-82
2021/07/01 03:50:39;;;;;;;4.47;3.28;;;;;;;;;;10327155;28;20467;-81
2021/07/01 03:55:41;;;;;;;3.83;2.80;;;;;;;;;;10327431;28;20133;-81
2021/07/01 04:00:43;;;;;;;4.05;2.90;;;;;;;;;;10326881;28;20137;-81
2021/07/01 04:05:44;;;;;;;4.75;2.65;;;;;;;;;;10327794;28;20054;-81
2021/07/01 04:10:46;;;;;;;3.60;2.60;;;;;;;;;;10336702;28;20377;-81
2021/07/01 04:15:47;;;;;;;5.63;2.85;;;;;;;;;;10327305;28;20226;-81
2021/07/01 04:20:49;;;;;;;4.95;2.90;;;;;;;;;;10308907;28;20137;-81
2021/07/01 04:25:51;;;;;;;5.15;3.00;;;;;;;;;;10327487;28;20077;-81
2021/07/01 04:30:53;;;;;;;4.00;3.08;;;;;;;;;;10334107;28;20053;-81
2021/07/01 04:35:56;;;;;;;6.15;3.10;;;;;;;;;;10327331;28;20085;-82
2021/07/01 04:40:58;;;;;;;6.03;3.28;;;;;;;;;;10325809;28;20059;-81
2021/07/01 04:45:59;;;;;;;4.85;4.00;;;;;;;;;;10306372;28;20117;-81
2021/07/01 04:51:01;;;;;;;7.18;3.30;;;;;;;;;;10308491;28;20042;-81
2021/07/01 04:56:03;;;;;;;5.63;3.45;;;;;;;;;;10324047;28;20085;-81
2021/07/01 05:01:04;;;;;;;4.85;3.30;;;;;;;;;;10324385;28;20050;-84
2021/07/01 05:06:06;;;;;;;3.40;2.40;;;;;;;;;;10307426;28;20078;-82
2021/07/01 05:11:07;;;;;;;4.78;2.40;;;;;;;;;;10308866;28;20116;-81
2021/07/01 05:16:09;;;;;;;4.68;2.20;;;;;;;;;;10324820;28;20444;-82
2021/07/01 05:21:11;;;;;;;3.53;2.10;;;;;;;;;;10323813;28;20041;-82
2021/07/01 05:26:12;;;;;;;2.65;2.00;;;;;;;;;;10328422;28;20677;-82
2021/07/01 05:31:14;;;;;;;3.00;1.90;;;;;;;;;;10323626;28;20139;-82
2021/07/01 05:36:15;;;;;;;3.90;2.00;;;;;;;;;;10324463;28;20054;-82
2021/07/01 05:41:17;;;;;;;3.35;2.20;;;;;;;;;;10324118;28;20100;-82
2021/07/01 05:46:18;;;;;;;4.32;2.20;;;;;;;;;;10291599;28;20468;-81
2021/07/01 05:51:20;;;;;;;6.63;2.20;;;;;;;;;;10317293;28;20416;-82
2021/07/01 05:56:22;;;;;;;4.90;2.33;;;;;;;;;;10324108;28;20078;-82
2021/07/01 06:01:23;;;;;;;4.45;2.70;;;;;;;;;;10323587;28;20500;-81
2021/07/01 06:06:25;;;;;;;4.32;2.70;;;;;;;;;;10322131;28;20058;-81
2021/07/01 06:11:26;;;;;;;3.45;2.55;;;;;;;;;;10322844;28;20154;-81
2021/07/01 06:16:30;;;;;;;4.50;2.30;;;;;;;;;;10313373;28;20093;-83
2021/07/01 06:21:32;;;;;;;4.75;2.83;;;;;;;;;;10320270;28;20051;-83
2021/07/01 06:26:35;;;;;;;4.85;3.10;;;;;;;;;;10303642;28;20191;-83
2021/07/01 06:31:38;;;;;;;6.00;3.40;;;;;;;;;;10320602;28;20137;-83
2021/07/01 06:36:41;;;;;;;5.72;4.10;;;;;;;;;;10317081;28;20534;-83
2021/07/01 06:41:45;;;;;;;4.43;3.60;;;;;;;;;;10327538;28;20157;-83
2021/07/01 06:46:46;;;;;;;6.03;3.85;;;;;;;;;;10327603;28;20161;-82
2021/07/01 06:51:49;;;;;;;6.10;3.92;;;;;;;;;;10327630;28;20042;-81
2021/07/01 06:56:51;;;;;;;4.82;4.15;;;;;;;;;;10327357;28;20136;-82
2021/07/01 07:01:53;;;;;;;5.57;4.45;;;;;;;;;;10327081;28;20139;-82
2021/07/01 07:06:54;;;;;;;5.05;4.07;;;;;;;;;;10326967;28;20047;-82
2021/07/01 07:11:56;;;;;;;4.72;3.80;;;;;;;;;;10326503;28;20081;-81
2021/07/01 07:16:58;;;;;;;5.05;3.55;;;;;;;;;;10307661;28;20086;-81
2021/07/01 07:22:01;;;;;;;6.00;3.70;;;;;;;;;;10327139;28;20415;-82
2021/07/01 07:27:05;;;;;;;5.50;3.78;;;;;;;;;;10327449;28;20050;-82
2021/07/01 07:32:08;;;;;;;3.97;2.95;;;;;;;;;;10322102;28;20133;-81
2021/07/01 07:37:10;;;;;;;20.45;4.55;;;;;;;;;;10325693;28;20546;-81
2021/07/01 07:42:12;;;;;;;4.95;2.65;;;;;;;;;;10325141;28;20340;-81
2021/07/01 07:47:14;;;;;;;24.27;4.00;;;;;;;;;;10328394;28;20070;-82
2021/07/01 07:52:16;;;;;;;3.67;2.00;;;;;;;;;;10324722;28;20073;-83
2021/07/01 07:57:19;;;;;;;2.88;2.20;;;;;;;;;;10340708;28;20078;-82
2021/07/01 08:02:38;;;;;;;3.70;2.17;;;;;;;;;;10334993;28;20080;-82
2021/07/01 08:07:41;;;;;;;7.03;3.00;;;;;;;;;;10326619;28;20050;-82
2021/07/01 08:12:43;;;;;;;4.70;2.70;;;;;;;;;;10325546;28;20046;-82
2021/07/01 08:17:46;;;;;;;4.45;2.70;;;;;;;;;;10323749;28;20201;-81
2021/07/01 08:22:49;;;;;;;4.45;3.25;;;;;;;;;;10324630;28;20100;-82
2021/07/01 08:27:52;;;;;;;8.48;3.30;;;;;;;;;;10330692;28;20133;-83
2021/07/01 08:32:57;;;;;;;6.57;3.78;;;;;;;;;;10327564;28;20149;-83
2021/07/01 08:38:01;;;;;;;5.85;3.67;;;;;;;;;;10318307;28;20116;-82
2021/07/01 08:43:04;;;;;;;8.57;4.63;;;;;;;;;;10305610;28;20165;-82
2021/07/01 08:48:11;;;;;;;9.02;5.80;;;;;;;;;;10322825;28;20081;-81
2021/07/01 08:53:22;;;;;;;10.98;6.10;;;;;;;;;;10322034;28;20138;-81
2021/07/01 08:58:24;;;;;;;12.48;6.00;;;;;;;;;;10303067;28;20073;-81
2021/07/01 09:03:27;;;;;;;11.55;6.60;;;;;;;;;;10323610;28;20081;-79
2021/07/01 09:08:30;;;;;;;12.70;6.93;;;;;;;;;;10323794;28;20133;-79
2021/07/01 09:13:33;;;;;;;11.18;7.57;;;;;;;;;;10338520;28;20081;-79
2021/07/01 09:18:39;;;;;;;13.25;7.00;;;;;;;;;;10322321;28;20086;-79
2021/07/01 09:23:48;;;;;;;13.02;7.10;;;;;;;;;;10301401;28;20145;-79
2021/07/01 09:28:50;;;;;;;11.13;6.97;;;;;;;;;;10322293;28;20129;-79
2021/07/01 09:33:52;;;;;;;12.45;6.90;;;;;;;;;;10322749;28;20081;-77
2021/07/01 09:38:54;;;;;;;13.90;6.85;;;;;;;;;;10322347;28;20090;-78
2021/07/01 09:43:56;;;;;;;11.82;7.47;;;;;;;;;;10328928;28;20073;-79
2021/07/01 09:49:01;;;;;;;13.18;7.10;;;;;;;;;;10323379;28;20081;-78
2021/07/01 09:54:04;;;;;;;12.77;7.57;;;;;;;;;;10323012;28;20403;-79
2021/07/01 09:59:26;;;;;;;17.02;7.43;;;;;;;;;;10346425;28;20081;-78
2021/07/01 10:04:34;;;;;;;14.82;6.70;;;;;;;;;;10321158;28;20081;-78
2021/07/01 10:09:36;;;;;;;8.77;6.35;;;;;;;;;;10322874;28;20137;-78
2021/07/01 10:14:39;;;;;;;16.67;6.70;;;;;;;;;;10312214;28;20077;-77
2021/07/01 10:19:41;;;;;;;11.32;6.50;;;;;;;;;;10331275;28;20084;-77
2021/07/01 10:24:49;;;;;;;11.43;6.88;;;;;;;;;;10332347;28;20074;-77
2021/07/01 10:29:51;;;;;;;14.68;7.22;;;;;;;;;;10331586;28;20471;-77
2021/07/01 10:34:57;;;;;;;11.60;6.25;;;;;;;;;;10331413;28;20061;-78
2021/07/01 10:40:09;;;;;;;9.68;6.20;;;;;;;;;;10330295;28;20773;-78
2021/07/01 10:45:13;;;;;;;8.23;6.30;;;;;;;;;;10331270;28;20105;-79
2021/07/01 10:50:21;;;;;;;9.13;6.22;;;;;;;;;;10331269;28;20050;-77
2021/07/01 10:55:22;;;;;;;11.40;6.07;;;;;;;;;;10330904;28;20078;-76
2021/07/01 11:00:45;;;;;;;12.48;6.05;;;;;;;;;;10330859;28;20430;-76
2021/07/01 11:06:02;;;;;;;11.52;6.45;;;;;;;;;;10330808;28;20074;-76
2021/07/01 11:11:16;;;;;;;8.43;5.85;;;;;;;;;;10329634;28;20125;-77
2021/07/01 11:16:18;;;;;;;11.52;6.30;;;;;;;;;;10339234;28;20078;-77
2021/07/01 11:21:21;;;;;;;12.15;6.40;;;;;;;;;;10327509;28;20058;-78
2021/07/01 11:26:23;;;;;;;10.05;5.85;;;;;;;;;;10327586;28;20212;-77
2021/07/01 11:31:36;;;;;;;10.13;5.63;;;;;;;;;;10329497;28;20475;-77
2021/07/01 11:36:38;;;;;;;12.57;6.55;;;;;;;;;;10328496;28;20120;-77
2021/07/01 11:41:40;;;;;;;11.50;6.13;;;;;;;;;;10342311;28;20101;-77
2021/07/01 11:46:43;;;;;;;12.38;6.32;;;;;;;;;;10342419;28;20141;-77
2021/07/01 11:51:45;;;;;;;10.43;5.50;;;;;;;;;;10326950;28;20570;-77
2021/07/01 11:56:54;;;;;;;12.90;5.50;;;;;;;;;;10326839;28;20129;-78
2021/07/01 12:01:57;;;;;;;9.23;5.43;;;;;;;;;;10326424;28;20575;-78
2021/07/01 12:06:59;;;;;;;9.18;5.60;;;;;;;;;;10326618;28;20542;-79
2021/07/01 12:12:01;;;;;;;9.65;5.55;;;;;;;;;;10304747;28;20141;-77
2021/07/01 12:17:02;;;;;;;6.93;5.10;;;;;;;;;;10324797;28;20142;-78
2021/07/01 12:22:04;;;;;;;10.00;5.10;;;;;;;;;;10327230;28;20166;-79
2021/07/01 12:27:26;;;;;;;9.77;5.22;;;;;;;;;;10325811;28;20460;-78
2021/07/01 12:32:28;;;;;;;11.65;5.03;;;;;;;;;;10324161;28;20073;-78
2021/07/01 12:37:30;;;;;;;23.13;5.65;;;;;;;;;;10307409;28;20046;-78
2021/07/01 12:42:39;;;;;;;9.95;5.20;;;;;;;;;;10324984;28;20048;-79
2021/07/01 12:47:40;;;;;;;8.00;5.00;;;;;;;;;;10324761;28;20130;-77
2021/07/01 12:52:43;;;;;;;9.63;5.05;;;;;;;;;;10324867;28;20704;-77
2021/07/01 12:57:45;;;;;;;8.30;4.50;;;;;;;;;;10323311;28;20136;-76
2021/07/01 13:02:55;;;;;;;10.82;4.93;;;;;;;;;;10325243;28;20065;-78
2021/07/01 13:07:57;;;;;;;9.23;4.50;;;;;;;;;;10323994;28;20130;-78
2021/07/01 13:13:00;;;;;;;10.55;4.93;;;;;;;;;;10307730;28;20460;-79
2021/07/01 13:18:03;;;;;;;8.65;4.65;;;;;;;;;;10321640;28;20051;-78
2021/07/01 13:23:05;;;;;;;6.97;4.28;;;;;;;;;;10324414;28;20089;-76
2021/07/01 13:28:08;;;;;;;12.05;4.47;;;;;;;;;;10338153;28;20074;-77
2021/07/01 13:33:14;;;;;;;10.27;4.60;;;;;;;;;;10323519;28;20046;-77
2021/07/01 13:38:21;;;;;;;6.65;3.92;;;;;;;;;;10340659;28;20062;-78
2021/07/01 13:43:23;;;;;;;6.85;4.00;;;;;;;;;;10324579;28;20043;-78
2021/07/01 13:48:27;;;;;;;9.52;4.07;;;;;;;;;;10321499;28;20149;-78
2021/07/01 13:53:31;;;;;;;8.40;4.20;;;;;;;;;;10318440;28;20138;-78
2021/07/01 13:58:33;;;;;;;7.70;4.25;;;;;;;;;;10320847;28;20129;-80
2021/07/01 14:03:36;;;;;;;8.10;4.30;;;;;;;;;;10324533;28;20065;-78
2021/07/01 14:08:42;;;;;;;9.82;4.78;;;;;;;;;;10323464;28;20458;-78
2021/07/01 14:13:46;;;;;;;8.90;4.50;;;;;;;;;;10324155;28;20054;-79
2021/07/01 14:18:52;;;;;;;8.50;4.50;;;;;;;;;;10312526;28;20054;-79
2021/07/01 14:24:06;;;;;;;7.82;4.65;;;;;;;;;;10323488;28;20089;-79
2021/07/01 14:29:07;;;;;;;12.35;5.18;;;;;;;;;;10324002;28;20155;-79
2021/07/01 14:34:09;;;;;;;12.80;5.28;;;;;;;;;;10323624;28;20176;-79
2021/07/01 14:39:12;;;;;;;9.98;5.68;;;;;;;;;;10323808;28;20089;-78
2021/07/01 14:44:21;;;;;;;11.18;5.20;;;;;;;;;;10323217;28;20085;-79
2021/07/01 14:49:27;;;;;;;9.77;5.47;;;;;;;;;;10323574;28;20121;-79
2021/07/01 14:54:31;;;;;;;11.95;5.60;;;;;;;;;;10321872;28;20125;-79
2021/07/01 14:59:42;;;;;;;8.55;4.95;;;;;;;;;;10326430;28;20559;-79
2021/07/01 15:04:45;;;;;;;7.60;4.95;;;;;;;;;;10330972;28;20110;-78
2021/07/01 15:09:48;;;;;;;8.45;4.80;;;;;;;;;;10329584;28;20134;-78
2021/07/01 15:14:51;;;;;;;9.73;4.60;;;;;;;;;;10345274;28;20635;-78
2021/07/01 15:19:53;;;;;;;10.18;5.10;;;;;;;;;;10313711;28;20054;-78
2021/07/01 15:24:56;;;;;;;9.80;5.13;;;;;;;;;;10329564;28;20070;-78
2021/07/01 15:29:57;;;;;;;9.07;4.93;;;;;;;;;;10328053;28;20129;-78
2021/07/01 15:34:59;;;;;;;12.68;5.55;;;;;;;;;;10329432;28;20054;-78
2021/07/01 15:40:01;;;;;;;8.00;5.00;;;;;;;;;;10329456;28;20118;-78
2021/07/01 15:45:03;;;;;;;7.28;4.50;;;;;;;;;;10327494;28;20078;-78
2021/07/01 15:50:05;;;;;;;10.70;4.50;;;;;;;;;;10329191;28;20089;-78
2021/07/01 15:55:07;;;;;;;13.10;4.53;;;;;;;;;;10322783;28;20124;-78
2021/07/01 16:00:10;;;;;;;6.03;3.95;;;;;;;;;;10325758;28;20135;-78
2021/07/01 16:05:12;;;;;;;7.78;4.10;;;;;;;;;;10325888;28;20082;-78
2021/07/01 16:10:14;;;;;;;22.27;4.57;;;;;;;;;;10324990;28;20455;-78
2021/07/01 16:15:16;;;;;;;8.02;4.03;;;;;;;;;;10324598;28;20145;-78
2021/07/01 16:20:17;;;;;;;10.85;4.30;;;;;;;;;;10334842;28;20104;-78
2021/07/01 16:25:26;;;;;;;6.20;3.90;;;;;;;;;;10353375;28;20141;-78
2021/07/01 16:30:37;;;;;;;7.30;4.00;;;;;;;;;;10353120;28;20046;-78
2021/07/01 16:35:39;;;;;;;6.95;3.92;;;;;;;;;;10350445;28;20051;-78
2021/07/01 16:40:41;;;;;;;7.22;4.22;;;;;;;;;;10332111;28;20081;-78
2021/07/01 16:45:44;;;;;;;5.40;3.67;;;;;;;;;;10325098;28;20058;-78
2021/07/01 16:50:46;;;;;;;9.23;4.20;;;;;;;;;;10328087;28;20061;-78
2021/07/01 16:55:54;;;;;;;6.50;3.70;;;;;;;;;;10321726;28;20081;-78
2021/07/01 17:00:57;;;;;;;10.68;4.13;;;;;;;;;;10324554;28;20603;-78
2021/07/01 17:05:59;;;;;;;7.85;4.07;;;;;;;;;;10325047;28;20101;-78
2021/07/01 17:11:03;;;;;;;8.10;4.22;;;;;;;;;;10325298;28;20372;-78
2021/07/01 17:16:06;;;;;;;7.38;4.38;;;;;;;;;;10325351;28;20081;-78
2021/07/01 17:21:08;;;;;;;9.35;4.47;;;;;;;;;;10326240;28;20776;-78
2021/07/01 17:26:11;;;;;;;6.28;3.97;;;;;;;;;;10323745;28;20081;-78
2021/07/01 17:31:14;;;;;;;5.45;3.78;;;;;;;;;;10323918;28;20112;-78
2021/07/01 17:36:16;;;;;;;8.23;4.40;;;;;;;;;;10323479;28;20054;-78
2021/07/01 17:41:19;;;;;;;7.55;4.07;;;;;;;;;;10323346;28;20090;-78
2021/07/01 17:46:22;;;;;;;7.40;4.28;;;;;;;;;;10321779;28;20085;-78
2021/07/01 17:51:24;;;;;;;9.60;4.38;;;;;;;;;;10323035;28;20129;-78
2021/07/01 17:56:25;;;;;;;7.90;4.13;;;;;;;;;;10321944;28;20089;-78
2021/07/01 18:01:27;;;;;;;7.85;4.32;;;;;;;;;;10321808;28;20082;-78
2021/07/01 18:06:29;;;;;;;7.63;4.25;;;;;;;;;;10322860;28;20096;-78
2021/07/01 18:11:31;;;;;;;6.88;4.45;;;;;;;;;;10321039;28;20133;-78
2021/07/01 18:16:32;;;;;;;11.00;4.55;;;;;;;;;;10322308;28;20108;-78
2021/07/01 18:21:34;;;;;;;8.07;4.45;;;;;;;;;;10321943;28;20050;-78
2021/07/01 18:26:36;;;;;;;7.88;4.90;;;;;;;;;;10337143;28;20046;-76
2021/07/01 18:31:38;;;;;;;10.07;4.78;;;;;;;;;;10321906;28;20137;-75
2021/07/01 18:36:40;;;;;;;9.57;4.68;;;;;;;;;;10326378;28;20047;-75
2021/07/01 18:41:43;;;;;;;9.32;4.93;;;;;;;;;;10330699;28;20066;-76
2021/07/01 18:46:49;;;;;;;9.25;5.22;;;;;;;;;;10331436;28;20129;-75
2021/07/01 18:51:51;;;;;;;10.27;4.80;;;;;;;;;;10331173;28;20096;-76
2021/07/01 18:56:53;;;;;;;9.63;4.45;;;;;;;;;;10330442;28;20129;-75
2021/07/01 19:01:57;;;;;;;7.53;4.40;;;;;;;;;;10331284;28;20093;-75
2021/07/01 19:06:58;;;;;;;13.40;4.80;;;;;;;;;;10330059;28;20058;-79
2021/07/01 19:12:00;;;;;;;8.90;4.25;;;;;;;;;;10330143;28;20201;-79
2021/07/01 19:17:06;;;;;;;11.10;4.88;;;;;;;;;;10330178;28;20137;-78
2021/07/01 19:22:08;;;;;;;11.70;4.60;;;;;;;;;;10330332;28;20089;-78
2021/07/01 19:27:09;;;;;;;8.57;5.00;;;;;;;;;;10330178;28;20468;-78
2021/07/01 19:32:11;;;;;;;9.23;5.00;;;;;;;;;;10330178;28;20069;-79
2021/07/01 19:37:18;;;;;;;10.40;5.07;;;;;;;;;;10328047;28;20471;-78
2021/07/01 19:42:21;;;;;;;8.77;4.80;;;;;;;;;;10314792;28;20088;-78
2021/07/01 19:47:23;;;;;;;17.48;5.22;;;;;;;;;;10305177;28;20076;-78
2021/07/01 19:52:25;;;;;;;10.10;5.65;;;;;;;;;;10328943;28;20089;-78
2021/07/01 19:57:28;;;;;;;13.77;5.20;;;;;;;;;;10288643;28;20133;-78
2021/07/01 20:02:30;;;;;;;9.80;5.55;;;;;;;;;;10326318;28;20053;-78
2021/07/01 20:07:33;;;;;;;10.80;5.40;;;;;;;;;;10327441;28;20125;-78
2021/07/01 20:12:34;;;;;;;8.75;5.43;;;;;;;;;;10328644;28;20129;-78
2021/07/01 20:17:37;;;;;;;12.93;5.68;;;;;;;;;;10325561;28;20054;-78
2021/07/01 20:22:44;;;;;;;13.20;6.03;;;;;;;;;;10325870;28;20050;-78
2021/07/01 20:27:46;;;;;;;11.73;5.55;;;;;;;;;;10327470;28;20078;-78
2021/07/01 20:32:48;;;;;;;9.60;6.00;;;;;;;;;;10327267;28;20081;-78
2021/07/01 20:37:49;;;;;;;9.13;5.60;;;;;;;;;;10319252;28;20051;-78
2021/07/01 20:42:51;;;;;;;11.32;6.00;;;;;;;;;;10308241;28;20137;-78
2021/07/01 20:47:52;;;;;;;13.25;6.32;;;;;;;;;;10324820;28;20129;-77
2021/07/01 20:52:57;;;;;;;11.30;6.30;;;;;;;;;;10325823;28;20141;-77
2021/07/01 20:57:58;;;;;;;13.60;6.80;;;;;;;;;;10325444;28;20050;-78
2021/07/01 21:03:00;;;;;;;14.50;6.72;;;;;;;;;;10325416;28;20074;-78
2021/07/01 21:08:04;;;;;;;11.73;6.55;;;;;;;;;;10308448;28;20561;-77
2021/07/01 21:13:05;;;;;;;10.10;6.50;;;;;;;;;;10325054;28;20492;-77
2021/07/01 21:18:09;;;;;;;10.63;7.00;;;;;;;;;;10340345;28;20515;-77
2021/07/01 21:23:11;;;;;;;11.65;6.25;;;;;;;;;;10336701;28;20490;-77
2021/07/01 21:28:14;;;;;;;12.18;6.90;;;;;;;;;;10351759;28;20078;-78
2021/07/01 21:33:16;;;;;;;12.15;6.88;;;;;;;;;;10307878;28;20133;-77
2021/07/01 21:38:18;;;;;;;13.52;6.43;;;;;;;;;;10323274;28;20066;-77
2021/07/01 21:43:20;;;;;;;11.57;6.75;;;;;;;;;;10322872;28;20088;-78
2021/07/01 21:48:23;;;;;;;11.23;6.70;;;;;;;;;;10319890;28;20456;-78
2021/07/01 21:53:24;;;;;;;12.30;6.80;;;;;;;;;;10323897;28;20108;-78
2021/07/01 21:58:26;;;;;;;11.50;6.72;;;;;;;;;;10324034;28;20112;-78
2021/07/01 22:03:28;;;;;;;13.68;7.22;;;;;;;;;;10323374;28;20129;-79
2021/07/01 22:08:29;;;;;;;15.52;8.23;;;;;;;;;;10323707;28;20077;-78
2021/07/01 22:13:32;;;;;;;13.63;8.15;;;;;;;;;;10324265;28;20133;-78
2021/07/01 22:18:35;;;;;;;13.10;8.48;;;;;;;;;;10324501;28;20057;-78
2021/07/01 22:23:37;;;;;;;15.38;8.68;;;;;;;;;;10323797;28;20115;-78
2021/07/01 22:28:40;;;;;;;15.48;9.05;;;;;;;;;;10324212;28;20074;-78
2021/07/01 22:33:43;;;;;;;12.30;9.38;;;;;;;;;;10324140;28;20125;-78
2021/07/01 22:38:45;;;;;;;15.38;9.10;;;;;;;;;;10323599;28;20535;-78
2021/07/01 22:43:47;;;;;;;14.57;9.88;;;;;;;;;;10323547;28;20109;-78
2021/07/01 22:48:49;;;;;;;16.13;10.43;;;;;;;;;;10323757;28;20944;-78
2021/07/01 22:53:50;;;;;;;19.65;11.23;;;;;;;;;;10306789;28;20465;-78
2021/07/01 22:58:52;;;;;;;15.63;10.80;;;;;;;;;;10324049;28;20086;-78
2021/07/01 23:03:54;;;;;;;14.05;9.68;;;;;;;;;;10323995;28;20144;-78
2021/07/01 23:08:55;;;;;;;14.73;9.82;;;;;;;;;;10323391;28;20077;-78
2021/07/01 23:13:57;;;;;;;13.25;9.00;;;;;;;;;;10344197;28;20112;-78
2021/07/01 23:18:58;;;;;;;16.27;9.80;;;;;;;;;;10344429;28;20086;-77
2021/07/01 23:24:00;;;;;;;16.33;10.98;;;;;;;;;;10330042;28;20512;-78
2021/07/01 23:29:01;;;;;;;15.30;10.82;;;;;;;;;;10329532;28;20523;-78
2021/07/01 23:34:03;;;;;;;14.57;10.15;;;;;;;;;;10329946;28;20129;-78
2021/07/01 23:39:05;;;;;;;14.63;10.32;;;;;;;;;;10329633;28;20150;-78
2021/07/01 23:44:07;;;;;;;15.25;9.77;;;;;;;;;;10344736;28;20082;-78
2021/07/01 23:49:08;;;;;;;15.68;10.40;;;;;;;;;;10329561;28;20133;-78
2021/07/01 23:54:10;;;;;;;16.50;10.02;;;;;;;;;;10343905;28;20082;-78
2021/07/01 23:59:14;;;;;;;12.90;10.02;;;;;;;;;;10328680;28;20112;-78
